SWA2118 KPHX-KSEA
Flight info
| Callsign | SWA2118 |
|---|---|
| Flight time | N/A |
| Altitude | 40000 |
| Route | QUAKY1 GCN WINEN NEERO KOATA PDT CHINS5 |
| Aircraft | B738/M-SADE2E3GIJ4RWZ/LB1D1 |
Departure
| Time | 2026-05-05 05:07 |
|---|---|
| Airport | Phoenix Sky Harbor International Airport (KPHX) |
Arrival
| Time | N/A |
|---|---|
| Airport | Seattle–Tacoma International Airport (KSEA) |
| Time | Latitude | Longitude | Altitude | Speed | Heading |
|---|---|---|---|---|---|
| 2026-05-05 04:25 | 33.43402 | -111.99735 | 1123 ft | 0 kts | 78° |
| 2026-05-05 04:58 | 33.43399 | -111.99749 | 1111 ft | 4 kts | 79° |
| 2026-05-05 04:58 | 33.43397 | -111.99780 | 1119 ft | 4 kts | 103° |
| 2026-05-05 04:58 | 33.43397 | -111.99787 | 1118 ft | 4 kts | 129° |
| 2026-05-05 04:58 | 33.43373 | -111.99780 | 1119 ft | 4 kts | 175° |
| 2026-05-05 04:59 | 33.43346 | -111.99780 | 1119 ft | 4 kts | 181° |
| 2026-05-05 04:59 | 33.43337 | -111.99780 | 1118 ft | 0 kts | 180° |
| 2026-05-05 05:02 | 33.43331 | -111.99780 | 1112 ft | 2 kts | 180° |
| 2026-05-05 05:02 | 33.43299 | -111.99786 | 1120 ft | 7 kts | 195° |
| 2026-05-05 05:03 | 33.43235 | -111.99798 | 1117 ft | 11 kts | 162° |
| 2026-05-05 05:03 | 33.43214 | -111.99703 | 1121 ft | 15 kts | 90° |
| 2026-05-05 05:03 | 33.43213 | -111.99568 | 1122 ft | 16 kts | 90° |
| 2026-05-05 05:03 | 33.43214 | -111.99440 | 1121 ft | 15 kts | 89° |
| 2026-05-05 05:04 | 33.43208 | -111.99359 | 1124 ft | 1 kts | 128° |
| 2026-05-05 05:04 | 33.43202 | -111.99354 | 1119 ft | 1 kts | 144° |
| 2026-05-05 05:04 | 33.43200 | -111.99353 | 1119 ft | 0 kts | 150° |
| 2026-05-05 05:05 | 33.43192 | -111.99348 | 1119 ft | 5 kts | 158° |
| 2026-05-05 05:05 | 33.43159 | -111.99345 | 1135 ft | 5 kts | 178° |
| 2026-05-05 05:05 | 33.43124 | -111.99344 | 1134 ft | 6 kts | 179° |
| 2026-05-05 05:06 | 33.43103 | -111.99383 | 1132 ft | 9 kts | 268° |
| 2026-05-05 05:06 | 33.43104 | -111.99612 | 1131 ft | 63 kts | 270° |
| 2026-05-05 05:06 | 33.43103 | -112.00436 | 1131 ft | 135 kts | 270° |
| 2026-05-05 05:06 | 33.43116 | -112.01704 | 1653 ft | 153 kts | 271° |
| 2026-05-05 05:07 | 33.43144 | -112.02958 | 2542 ft | 152 kts | 269° |
| 2026-05-05 05:07 | 33.43217 | -112.04220 | 2981 ft | 173 kts | 275° |
| 2026-05-05 05:07 | 33.43293 | -112.05690 | 3630 ft | 179 kts | 269° |
| 2026-05-05 05:07 | 33.43295 | -112.07243 | 4203 ft | 195 kts | 267° |
| 2026-05-05 05:08 | 33.43266 | -112.08895 | 4780 ft | 205 kts | 266° |
| 2026-05-05 05:08 | 33.43227 | -112.10633 | 5152 ft | 223 kts | 266° |
| 2026-05-05 05:08 | 33.43204 | -112.12556 | 5385 ft | 251 kts | 269° |
| 2026-05-05 05:08 | 33.43379 | -112.14626 | 6257 ft | 250 kts | 271° |
| 2026-05-05 05:09 | 33.43547 | -112.16695 | 7252 ft | 254 kts | 279° |
| 2026-05-05 05:09 | 33.44422 | -112.18557 | 8206 ft | 265 kts | 312° |
| 2026-05-05 05:09 | 33.46046 | -112.19652 | 9262 ft | 278 kts | 344° |
| 2026-05-05 05:09 | 33.47970 | -112.19792 | 10211 ft | 284 kts | 358° |
| 2026-05-05 05:10 | 33.49531 | -112.19744 | 10901 ft | 288 kts | 359° |
| 2026-05-05 05:10 | 33.51564 | -112.19673 | 11796 ft | 293 kts | 358° |
| 2026-05-05 05:10 | 33.53387 | -112.19562 | 12559 ft | 301 kts | 4° |
| 2026-05-05 05:10 | 33.55523 | -112.19025 | 12977 ft | 329 kts | 12° |
| 2026-05-05 05:11 | 33.57841 | -112.18278 | 13213 ft | 358 kts | 12° |
| 2026-05-05 05:11 | 33.60266 | -112.17469 | 13801 ft | 375 kts | 17° |
| 2026-05-05 05:11 | 33.62164 | -112.16266 | 14365 ft | 385 kts | 36° |
| 2026-05-05 05:11 | 33.64124 | -112.14044 | 15263 ft | 388 kts | 45° |
| 2026-05-05 05:12 | 33.65945 | -112.11674 | 16000 ft | 395 kts | 46° |
| 2026-05-05 05:12 | 33.67564 | -112.09533 | 16556 ft | 404 kts | 46° |
| 2026-05-05 05:12 | 33.69484 | -112.07026 | 17277 ft | 410 kts | 45° |
| 2026-05-05 05:12 | 33.71441 | -112.04510 | 18044 ft | 415 kts | 44° |
| 2026-05-05 05:13 | 33.72979 | -112.02555 | 18606 ft | 418 kts | 42° |
| 2026-05-05 05:13 | 33.74342 | -112.01144 | 19027 ft | 416 kts | 29° |
| 2026-05-05 05:13 | 33.77204 | -111.99543 | 19605 ft | 412 kts | 11° |
| 2026-05-05 05:13 | 33.79955 | -111.98858 | 20128 ft | 415 kts | 2° |
| 2026-05-05 05:14 | 33.82845 | -111.98363 | 20666 ft | 422 kts | 1° |
| 2026-05-05 05:14 | 33.85765 | -111.97890 | 21215 ft | 430 kts | 1° |
| 2026-05-05 05:14 | 33.88649 | -111.97437 | 21718 ft | 437 kts | 2° |
| 2026-05-05 05:14 | 33.91688 | -111.96896 | 22265 ft | 444 kts | 2° |
| 2026-05-05 05:15 | 33.94147 | -111.96432 | 22708 ft | 449 kts | 2° |
| 2026-05-05 05:15 | 33.97248 | -111.95833 | 23229 ft | 456 kts | 2° |
| 2026-05-05 05:15 | 34.00117 | -111.95292 | 23629 ft | 463 kts | 2° |
| 2026-05-05 05:15 | 34.02238 | -111.94882 | 23888 ft | 467 kts | 2° |
| 2026-05-05 05:16 | 34.06311 | -111.94094 | 24574 ft | 470 kts | 2° |
| 2026-05-05 05:16 | 34.09506 | -111.93552 | 25103 ft | 468 kts | 356° |
| 2026-05-05 05:16 | 34.12723 | -111.93645 | 25547 ft | 462 kts | 346° |
| 2026-05-05 05:16 | 34.15924 | -111.94046 | 26038 ft | 463 kts | 344° |
| 2026-05-05 05:17 | 34.19123 | -111.94510 | 26514 ft | 466 kts | 344° |
| 2026-05-05 05:17 | 34.22375 | -111.94964 | 26990 ft | 471 kts | 344° |
| 2026-05-05 05:17 | 34.24340 | -111.95219 | 27256 ft | 473 kts | 345° |
| 2026-05-05 05:17 | 34.28428 | -111.95707 | 27801 ft | 479 kts | 345° |
| 2026-05-05 05:18 | 34.31775 | -111.96078 | 28236 ft | 483 kts | 345° |
| 2026-05-05 05:18 | 34.35140 | -111.96443 | 28619 ft | 488 kts | 345° |
| 2026-05-05 05:18 | 34.38536 | -111.96812 | 29022 ft | 491 kts | 345° |
| 2026-05-05 05:18 | 34.41957 | -111.97188 | 29450 ft | 494 kts | 345° |
| 2026-05-05 05:19 | 34.45350 | -111.97564 | 29857 ft | 498 kts | 345° |
| 2026-05-05 05:19 | 34.47654 | -111.97819 | 30096 ft | 501 kts | 345° |
| 2026-05-05 05:19 | 34.51991 | -111.98382 | 30391 ft | 506 kts | 343° |
| 2026-05-05 05:19 | 34.54973 | -111.98722 | 30670 ft | 510 kts | 345° |
| 2026-05-05 05:20 | 34.57304 | -111.98959 | 30930 ft | 511 kts | 345° |
| 2026-05-05 05:20 | 34.60859 | -111.99312 | 31304 ft | 512 kts | 345° |
| 2026-05-05 05:20 | 34.64425 | -111.99680 | 31612 ft | 515 kts | 344° |
| 2026-05-05 05:20 | 34.68008 | -112.00067 | 31894 ft | 518 kts | 344° |
| 2026-05-05 05:21 | 34.71604 | -112.00466 | 32260 ft | 519 kts | 343° |
| 2026-05-05 05:21 | 34.75196 | -112.00865 | 32707 ft | 518 kts | 343° |
| 2026-05-05 05:21 | 34.78784 | -112.01263 | 33203 ft | 516 kts | 343° |
| 2026-05-05 05:21 | 34.82345 | -112.01661 | 33657 ft | 514 kts | 342° |
| 2026-05-05 05:22 | 34.85772 | -112.02047 | 34030 ft | 514 kts | 342° |
| 2026-05-05 05:22 | 34.89343 | -112.02451 | 34382 ft | 514 kts | 342° |
| 2026-05-05 05:22 | 34.92900 | -112.02852 | 34789 ft | 512 kts | 342° |
| 2026-05-05 05:22 | 34.96431 | -112.03249 | 35206 ft | 508 kts | 342° |
| 2026-05-05 05:23 | 34.99930 | -112.03641 | 35671 ft | 505 kts | 342° |
| 2026-05-05 05:23 | 35.03413 | -112.04033 | 36060 ft | 502 kts | 342° |
| 2026-05-05 05:23 | 35.06859 | -112.04424 | 36428 ft | 501 kts | 342° |
| 2026-05-05 05:23 | 35.10351 | -112.04822 | 36738 ft | 501 kts | 342° |
| 2026-05-05 05:24 | 35.13794 | -112.05215 | 37073 ft | 500 kts | 342° |
| 2026-05-05 05:24 | 35.16664 | -112.05541 | 37506 ft | 498 kts | 342° |
| 2026-05-05 05:24 | 35.19556 | -112.05869 | 37822 ft | 497 kts | 342° |
| 2026-05-05 05:24 | 35.22986 | -112.06259 | 38130 ft | 497 kts | 342° |
| 2026-05-05 05:25 | 35.26402 | -112.06648 | 38471 ft | 496 kts | 342° |
| 2026-05-05 05:25 | 35.29830 | -112.07037 | 38836 ft | 493 kts | 342° |
| 2026-05-05 05:25 | 35.32886 | -112.07384 | 39121 ft | 491 kts | 342° |
| 2026-05-05 05:25 | 35.35962 | -112.07733 | 39422 ft | 488 kts | 342° |
| 2026-05-05 05:26 | 35.39339 | -112.08096 | 39801 ft | 485 kts | 342° |
| 2026-05-05 05:26 | 35.42704 | -112.08375 | 40051 ft | 486 kts | 344° |
| 2026-05-05 05:26 | 35.46088 | -112.08703 | 40007 ft | 488 kts | 343° |
| 2026-05-05 05:27 | 35.52853 | -112.09426 | 39971 ft | 486 kts | 343° |
| 2026-05-05 05:27 | 35.62861 | -112.10583 | 39986 ft | 478 kts | 342° |
| 2026-05-05 05:28 | 35.69476 | -112.11398 | 39991 ft | 477 kts | 342° |
| 2026-05-05 05:28 | 35.76071 | -112.12198 | 40018 ft | 477 kts | 342° |
| 2026-05-05 05:29 | 35.82679 | -112.12994 | 40033 ft | 477 kts | 342° |
| 2026-05-05 05:29 | 35.89332 | -112.13800 | 40079 ft | 486 kts | 343° |
| 2026-05-05 05:30 | 35.96050 | -112.14810 | 40044 ft | 476 kts | 331° |
| 2026-05-05 05:30 | 35.98989 | -112.16366 | 40091 ft | 450 kts | 318° |
| 2026-05-05 05:30 | 36.01721 | -112.18228 | 40069 ft | 451 kts | 318° |
| 2026-05-05 05:31 | 36.07217 | -112.22012 | 40046 ft | 452 kts | 317° |
| 2026-05-05 05:31 | 36.12725 | -112.25757 | 39991 ft | 453 kts | 318° |
| 2026-05-05 05:32 | 36.18281 | -112.29494 | 39958 ft | 454 kts | 319° |
| 2026-05-05 05:32 | 36.23838 | -112.33222 | 39893 ft | 455 kts | 319° |
| 2026-05-05 05:33 | 36.29396 | -112.36954 | 39886 ft | 454 kts | 319° |
| 2026-05-05 05:33 | 36.34944 | -112.40690 | 39880 ft | 455 kts | 319° |
| 2026-05-05 05:34 | 36.40534 | -112.44420 | 39877 ft | 454 kts | 319° |
| 2026-05-05 05:34 | 36.46091 | -112.48156 | 39872 ft | 453 kts | 319° |
| 2026-05-05 05:35 | 36.51576 | -112.51874 | 39879 ft | 445 kts | 315° |
| 2026-05-05 05:35 | 36.56952 | -112.55837 | 39873 ft | 450 kts | 321° |
| 2026-05-05 05:36 | 36.62539 | -112.59435 | 39862 ft | 451 kts | 321° |
| 2026-05-05 05:36 | 36.68054 | -112.63093 | 39870 ft | 448 kts | 321° |
| 2026-05-05 05:37 | 36.73515 | -112.66809 | 39848 ft | 446 kts | 321° |
| 2026-05-05 05:37 | 36.78936 | -112.70520 | 39890 ft | 445 kts | 320° |
| 2026-05-05 05:38 | 36.84356 | -112.74232 | 39917 ft | 444 kts | 320° |
| 2026-05-05 05:38 | 36.89770 | -112.77941 | 39962 ft | 444 kts | 321° |
| 2026-05-05 05:39 | 36.95209 | -112.81671 | 39982 ft | 446 kts | 321° |
| 2026-05-05 05:39 | 37.00640 | -112.85400 | 39989 ft | 446 kts | 321° |
| 2026-05-05 05:40 | 37.06098 | -112.89155 | 39984 ft | 447 kts | 321° |
| 2026-05-05 05:40 | 37.11466 | -112.92854 | 39969 ft | 449 kts | 321° |
| 2026-05-05 05:41 | 37.16943 | -112.96633 | 39949 ft | 450 kts | 321° |
| 2026-05-05 05:41 | 37.22451 | -113.00441 | 39904 ft | 452 kts | 321° |
| 2026-05-05 05:42 | 37.27950 | -113.04236 | 39861 ft | 455 kts | 324° |
| 2026-05-05 05:42 | 37.33408 | -113.08178 | 39841 ft | 453 kts | 322° |
| 2026-05-05 05:43 | 37.39005 | -113.11856 | 39874 ft | 455 kts | 322° |
| 2026-05-05 05:43 | 37.44546 | -113.15714 | 39891 ft | 455 kts | 322° |
| 2026-05-05 05:44 | 37.50081 | -113.19618 | 39921 ft | 455 kts | 322° |
| 2026-05-05 05:44 | 37.55611 | -113.23498 | 39928 ft | 455 kts | 322° |
| 2026-05-05 05:45 | 37.61130 | -113.27360 | 39938 ft | 454 kts | 322° |
| 2026-05-05 05:45 | 37.66614 | -113.31202 | 39948 ft | 454 kts | 323° |
| 2026-05-05 05:46 | 37.72157 | -113.35092 | 39914 ft | 453 kts | 322° |
| 2026-05-05 05:46 | 37.77614 | -113.38929 | 39888 ft | 452 kts | 322° |
| 2026-05-05 05:47 | 37.82963 | -113.42698 | 39857 ft | 452 kts | 322° |
| 2026-05-05 05:47 | 37.88453 | -113.46572 | 39816 ft | 452 kts | 323° |
| 2026-05-05 05:48 | 37.93857 | -113.50539 | 39810 ft | 446 kts | 316° |
| 2026-05-05 05:48 | 37.98588 | -113.55503 | 39810 ft | 440 kts | 311° |
| 2026-05-05 05:49 | 38.03049 | -113.60427 | 39832 ft | 441 kts | 311° |
| 2026-05-05 05:49 | 38.07681 | -113.65511 | 39828 ft | 442 kts | 312° |
| 2026-05-05 05:50 | 38.12357 | -113.70603 | 39813 ft | 443 kts | 312° |
| 2026-05-05 05:50 | 38.17039 | -113.75690 | 39824 ft | 443 kts | 312° |
| 2026-05-05 05:51 | 38.21716 | -113.80778 | 39814 ft | 444 kts | 312° |
| 2026-05-05 05:51 | 38.26406 | -113.85888 | 39806 ft | 444 kts | 312° |
| 2026-05-05 05:52 | 38.31098 | -113.91009 | 39823 ft | 444 kts | 312° |
| 2026-05-05 05:52 | 38.35794 | -113.96147 | 39818 ft | 445 kts | 312° |
| 2026-05-05 05:53 | 38.40486 | -114.01288 | 39825 ft | 446 kts | 313° |
| 2026-05-05 05:53 | 38.45193 | -114.06456 | 39812 ft | 446 kts | 313° |
| 2026-05-05 05:54 | 38.49905 | -114.11638 | 39809 ft | 447 kts | 313° |
| 2026-05-05 05:54 | 38.54609 | -114.16820 | 39816 ft | 448 kts | 313° |
| 2026-05-05 05:55 | 38.59330 | -114.22030 | 39815 ft | 448 kts | 313° |
| 2026-05-05 05:55 | 38.64018 | -114.27213 | 39815 ft | 449 kts | 313° |
| 2026-05-05 05:56 | 38.67172 | -114.30705 | 39809 ft | 449 kts | 313° |